createdAt,value
2019-04-10T05:04:13.193Z,8.80
2019-04-10T05:06:43.731Z,8.80
2019-04-10T05:09:25.985Z,8.70
2019-04-10T05:11:45.286Z,8.70
2019-04-10T05:14:15.380Z,8.70
2019-04-10T05:16:45.713Z,8.80
2019-04-10T05:19:17.270Z,8.80
2019-04-10T05:21:47.694Z,8.80
2019-04-10T05:24:18.129Z,8.80
2019-04-10T05:26:49.018Z,8.90
2019-04-10T05:29:19.660Z,8.80
2019-04-10T05:31:50.941Z,8.70
2019-04-10T05:34:23.372Z,8.70
2019-04-10T05:36:54.669Z,8.60
2019-04-10T05:39:30.419Z,8.60
2019-04-10T05:42:02.335Z,8.60
2019-04-10T05:44:32.090Z,8.50
2019-04-10T05:47:01.972Z,8.50
2019-04-10T05:49:33.056Z,8.40
2019-04-10T05:52:04.191Z,8.40
2019-04-10T05:54:35.336Z,8.40
2019-04-10T05:57:06.109Z,8.40
2019-04-10T05:59:38.370Z,8.40
2019-04-10T06:02:09.336Z,8.40
2019-04-10T06:04:39.672Z,8.40
2019-04-10T06:07:10.644Z,8.40
2019-04-10T06:09:51.980Z,8.40
2019-04-10T06:12:13.827Z,8.40
2019-04-10T06:14:44.244Z,8.40
2019-04-10T06:17:14.239Z,8.30
2019-04-10T06:19:44.797Z,8.30
2019-04-10T06:22:15.125Z,8.40
2019-04-10T06:24:45.006Z,8.30
2019-04-10T06:27:14.971Z,8.30
2019-04-10T06:29:46.166Z,8.30
2019-04-10T06:32:17.064Z,8.40
2019-04-10T06:34:48.050Z,8.30
2019-04-10T06:37:18.339Z,8.40
2019-04-10T06:39:49.015Z,8.40
2019-04-10T06:42:20.314Z,8.40
2019-04-10T06:44:50.539Z,8.40
2019-04-10T06:47:20.477Z,8.40
2019-04-10T06:49:52.428Z,8.30
2019-04-10T06:52:23.626Z,8.30
2019-04-10T06:54:54.094Z,8.30
2019-04-10T06:57:25.010Z,8.40
2019-04-10T06:59:54.883Z,8.30
2019-04-10T07:02:28.255Z,8.30
2019-04-10T07:05:03.001Z,8.30
2019-04-10T07:07:43.365Z,8.50
2019-04-10T07:09:59.969Z,8.50
2019-04-10T07:12:33.960Z,8.30
2019-04-10T07:15:04.293Z,8.30
2019-04-10T07:17:40.345Z,8.30
2019-04-10T07:20:09.503Z,8.30
2019-04-10T07:22:45.164Z,8.30
2019-04-10T07:25:12.846Z,8.30
2019-04-10T07:27:44.048Z,8.30
2019-04-10T07:30:15.476Z,8.30
2019-04-10T07:32:47.903Z,8.30
2019-04-10T07:35:21.471Z,8.30
2019-04-10T07:37:54.286Z,8.30
2019-04-10T07:40:22.842Z,8.40
2019-04-10T07:42:53.212Z,8.40
2019-04-10T07:45:26.376Z,8.40
2019-04-10T07:47:55.891Z,8.40
2019-04-10T07:50:26.111Z,8.50
2019-04-10T07:52:56.155Z,8.40
2019-04-10T07:55:26.026Z,8.40
2019-04-10T07:57:57.125Z,8.40
2019-04-10T08:00:28.440Z,8.40
2019-04-10T08:02:59.403Z,8.40
2019-04-10T08:05:29.675Z,8.40
2019-04-10T08:08:00.853Z,8.30
2019-04-10T08:10:31.276Z,8.30
2019-04-10T08:13:02.272Z,8.30
2019-04-10T08:15:33.562Z,8.30
2019-04-10T08:18:04.599Z,8.30
2019-04-10T08:20:35.311Z,8.20
2019-04-10T08:23:07.418Z,8.20
2019-04-10T08:25:36.748Z,8.30
2019-04-10T08:28:07.228Z,8.30
2019-04-10T08:30:37.518Z,8.30
2019-04-10T08:33:07.800Z,8.30
2019-04-10T08:35:38.537Z,8.20
2019-04-10T08:38:09.678Z,8.30
2019-04-10T08:40:40.432Z,8.30
2019-04-10T08:43:11.676Z,8.30
2019-04-10T08:45:47.211Z,8.30
2019-04-10T08:48:13.529Z,8.30
2019-04-10T08:50:44.011Z,8.30
2019-04-10T08:53:14.042Z,8.30
2019-04-10T08:55:44.136Z,8.30
2019-04-10T08:58:14.508Z,8.40
2019-04-10T09:00:44.932Z,8.30
2019-04-10T09:03:16.932Z,8.30
2019-04-10T09:05:47.354Z,8.40
2019-04-10T09:08:17.292Z,8.40
2019-04-10T09:10:47.222Z,8.40
2019-04-10T09:13:17.174Z,8.30
2019-04-10T09:15:47.937Z,8.40
2019-04-10T09:18:18.143Z,8.30
2019-04-10T09:20:49.033Z,8.30
2019-04-10T09:23:35.742Z,8.30
2019-04-10T09:25:51.336Z,8.30
2019-04-10T09:28:27.113Z,8.30
2019-04-10T09:30:59.435Z,8.30
2019-04-10T09:33:39.152Z,8.30
2019-04-10T09:36:15.177Z,8.40
2019-04-10T09:38:52.826Z,8.30
2019-04-10T09:41:21.587Z,8.30
2019-04-10T09:43:56.165Z,8.30
2019-04-10T09:46:26.885Z,8.30
2019-04-10T09:48:56.950Z,8.30
2019-04-10T09:51:27.324Z,8.40
2019-04-10T09:53:57.439Z,8.50
2019-04-10T10:00:07.428Z,8.70
2019-04-10T10:02:39.930Z,8.80
2019-04-10T10:05:18.165Z,8.70
2019-04-10T10:07:48.643Z,8.70
2019-04-10T10:10:20.548Z,8.80
2019-04-10T10:12:52.548Z,8.90
2019-04-10T10:15:25.270Z,9.00
2019-04-10T10:17:59.157Z,9.00
2019-04-10T10:20:30.691Z,9.00
2019-04-10T10:23:03.126Z,8.90
2019-04-10T10:25:35.268Z,9.00
2019-04-10T10:28:07.738Z,9.00
2019-04-10T10:30:39.774Z,9.10
2019-04-10T10:33:10.154Z,9.20
2019-04-10T10:35:41.135Z,9.30
2019-04-10T10:38:12.738Z,9.40
2019-04-10T10:40:44.590Z,9.30
2019-04-10T10:43:16.183Z,9.30
2019-04-10T10:45:47.135Z,9.30
2019-04-10T10:48:17.722Z,9.30
2019-04-10T10:50:47.954Z,9.20
2019-04-10T10:53:20.227Z,9.20
2019-04-10T10:55:50.237Z,9.20
2019-04-10T10:58:20.378Z,9.10
2019-04-10T11:00:51.626Z,9.10
2019-04-10T11:03:22.994Z,9.20
2019-04-10T11:05:53.148Z,9.20
2019-04-10T11:08:24.573Z,9.20
2019-04-10T11:10:57.210Z,9.10
2019-04-10T11:13:27.488Z,9.30
2019-04-10T11:16:03.854Z,9.40
2019-04-10T11:18:32.760Z,9.60
2019-04-10T11:21:08.872Z,9.60
2019-04-10T11:23:37.607Z,9.60
2019-04-10T11:26:11.063Z,9.60
2019-04-10T11:28:43.246Z,9.60
2019-04-10T11:31:15.789Z,9.50
2019-04-10T11:33:51.735Z,9.50
2019-04-10T11:36:32.352Z,9.30
2019-04-10T11:39:19.291Z,9.40
2019-04-10T11:41:45.799Z,9.50
2019-04-10T11:44:28.383Z,9.50
2019-04-10T11:46:59.038Z,9.40
2019-04-10T11:49:30.961Z,9.50
2019-04-10T11:52:01.804Z,9.50
2019-04-10T11:54:37.594Z,9.50
2019-04-10T11:57:07.566Z,9.70
2019-04-10T11:59:39.007Z,9.80
2019-04-10T12:02:10.213Z,9.80
2019-04-10T12:04:50.342Z,9.90
2019-04-10T12:07:53.386Z,9.90
2019-04-10T12:12:21.663Z,10.00
2019-04-10T12:14:52.488Z,10.00
2019-04-10T12:17:23.126Z,9.90
2019-04-10T12:19:54.310Z,9.90
2019-04-10T12:22:25.504Z,9.80
2019-04-10T12:24:56.717Z,10.00
2019-04-10T12:27:27.456Z,10.00
2019-04-10T12:29:57.573Z,10.10
2019-04-10T12:32:28.548Z,10.10
2019-04-10T12:35:00.324Z,10.20
2019-04-10T12:37:31.152Z,10.30
2019-04-10T12:40:01.817Z,10.40
2019-04-10T12:42:34.556Z,10.40
2019-04-10T12:45:08.261Z,10.30
2019-04-10T12:47:38.486Z,10.40
2019-04-10T12:50:09.131Z,10.30
2019-04-10T12:52:39.267Z,10.30
2019-04-10T12:55:10.207Z,10.20
2019-04-10T12:57:41.461Z,10.30
2019-04-10T13:00:15.987Z,10.30
2019-04-10T13:02:47.032Z,10.40
2019-04-10T13:05:16.995Z,10.40
2019-04-10T13:07:47.725Z,10.40
2019-04-10T13:13:52.656Z,10.60
2019-04-10T13:16:23.839Z,10.60
2019-04-10T13:18:54.480Z,10.70
2019-04-10T13:21:24.996Z,10.80
2019-04-10T13:23:55.266Z,10.90
2019-04-10T13:26:26.006Z,10.90
2019-04-10T13:28:56.719Z,10.90
2019-04-10T13:31:28.216Z,10.90
2019-04-10T13:33:58.107Z,11.00
2019-04-10T13:36:34.365Z,11.10
2019-04-10T13:39:06.849Z,11.10
2019-04-10T13:41:36.806Z,11.10
2019-04-10T13:44:06.707Z,11.10
2019-04-10T13:46:37.276Z,11.10
2019-04-10T13:49:09.455Z,11.10
2019-04-10T13:51:39.728Z,11.00
2019-04-10T13:54:10.376Z,10.90
2019-04-10T13:56:41.270Z,10.80
2019-04-10T13:59:13.816Z,10.80
2019-04-10T14:01:43.939Z,10.90
2019-04-10T14:04:16.654Z,10.80
2019-04-10T14:06:49.120Z,10.80
2019-04-10T14:09:31.381Z,10.80
2019-04-10T14:11:51.387Z,10.70
2019-04-10T14:14:21.507Z,10.70
2019-04-10T14:16:51.585Z,10.60
2019-04-10T14:19:21.670Z,10.60
2019-04-10T14:21:51.862Z,10.60
2019-04-10T14:24:22.045Z,10.60
2019-04-10T14:26:55.644Z,10.60
2019-04-10T14:29:26.894Z,10.70
2019-04-10T14:31:59.160Z,10.80
2019-04-10T14:34:30.153Z,10.90
2019-04-10T14:37:01.142Z,11.00
2019-04-10T14:39:31.536Z,11.00
2019-04-10T14:42:02.359Z,11.00
2019-04-10T14:44:32.690Z,10.80
2019-04-10T14:47:02.666Z,10.70
2019-04-10T14:49:33.423Z,10.70
2019-04-10T14:52:03.462Z,10.70
2019-04-10T14:54:33.344Z,10.80
2019-04-10T14:57:04.265Z,11.00
2019-04-10T14:59:34.473Z,11.10
2019-04-10T15:02:06.395Z,11.10
2019-04-10T15:04:37.381Z,11.00
2019-04-10T15:07:08.094Z,11.00
2019-04-10T15:09:38.368Z,10.90
2019-04-10T15:12:10.003Z,11.00
2019-04-10T15:14:40.218Z,11.00
2019-04-10T15:17:10.096Z,10.90
2019-04-10T15:19:40.635Z,10.80
2019-04-10T15:22:11.568Z,10.70
2019-04-10T15:24:42.733Z,10.60
2019-04-10T15:27:13.308Z,10.50
2019-04-10T15:29:43.237Z,10.40
2019-04-10T15:32:13.222Z,10.30
2019-04-10T15:34:43.776Z,10.40
2019-04-10T15:37:15.131Z,10.30
2019-04-10T15:39:46.405Z,10.30
2019-04-10T15:42:16.525Z,10.20
2019-04-10T15:44:46.470Z,10.10
2019-04-10T15:47:22.191Z,10.10
2019-04-10T15:49:49.390Z,10.10
2019-04-10T15:52:20.818Z,10.10
2019-04-10T15:54:53.364Z,10.00
2019-04-10T15:57:22.774Z,9.90
2019-04-10T15:59:53.263Z,9.90
2019-04-10T16:02:23.720Z,9.90
2019-04-10T16:04:55.289Z,9.90
2019-04-10T16:07:27.291Z,9.80
2019-04-10T16:09:59.352Z,9.70
2019-04-10T16:12:31.814Z,9.70
2019-04-10T16:15:02.849Z,9.70
2019-04-10T16:17:52.112Z,9.70
2019-04-10T16:20:31.893Z,9.70
2019-04-10T16:23:12.330Z,9.60
2019-04-10T16:25:50.210Z,9.60
2019-04-10T16:28:20.842Z,9.60
2019-04-10T16:30:50.914Z,9.60
2019-04-10T16:33:21.090Z,9.50
2019-04-10T16:35:51.087Z,9.60
2019-04-10T16:38:21.015Z,9.50
2019-04-10T16:40:52.077Z,9.60
2019-04-10T16:43:24.365Z,9.50
2019-04-10T16:45:55.175Z,9.50
2019-04-10T16:48:26.410Z,9.40
2019-04-10T16:50:56.734Z,9.40
2019-04-10T16:53:27.847Z,9.40
2019-04-10T16:55:59.019Z,9.50
2019-04-10T16:58:29.049Z,9.50
2019-04-10T17:00:58.961Z,9.40
2019-04-10T17:03:29.642Z,9.30
2019-04-10T17:05:59.837Z,9.40
2019-04-10T17:08:30.037Z,9.40
2019-04-10T17:11:00.833Z,9.40
2019-04-10T17:13:30.810Z,9.40
2019-04-10T17:16:01.720Z,9.40
2019-04-10T17:18:31.656Z,9.30
2019-04-10T17:21:03.074Z,9.20
2019-04-10T17:23:36.347Z,9.20
2019-04-10T17:26:07.275Z,9.30
2019-04-10T17:28:37.198Z,9.20
2019-04-10T17:31:08.816Z,9.20
2019-04-10T17:33:38.607Z,9.20
2019-04-10T17:36:09.581Z,9.20
2019-04-10T17:38:42.494Z,9.20
2019-04-10T17:41:13.185Z,9.20
2019-04-10T17:43:43.492Z,9.10
2019-04-10T17:46:13.394Z,9.00
2019-04-10T17:48:44.133Z,9.10
2019-04-10T17:51:14.997Z,9.10
2019-04-10T17:53:45.406Z,9.00
2019-04-10T17:56:15.943Z,9.00
2019-04-10T17:58:45.932Z,8.90
2019-04-10T18:01:17.372Z,8.90
2019-04-10T18:03:52.143Z,9.00
2019-04-10T18:06:20.104Z,9.00
2019-04-10T18:08:50.025Z,9.00
2019-04-10T18:11:20.323Z,8.90
2019-04-10T18:13:51.090Z,9.00
2019-04-10T18:16:22.088Z,8.80
2019-04-10T18:18:53.857Z,8.80
2019-04-10T18:21:24.649Z,8.70
2019-04-10T18:23:55.775Z,8.70
2019-04-10T18:26:27.565Z,8.80
2019-04-10T18:28:59.713Z,8.80
2019-04-10T18:31:30.769Z,8.80
2019-04-10T18:34:00.838Z,8.80
2019-04-10T18:36:31.951Z,8.80
2019-04-10T18:39:03.468Z,8.80
2019-04-10T18:41:36.074Z,8.70
2019-04-10T18:44:07.012Z,8.70
2019-04-10T18:46:39.492Z,8.80
2019-04-10T18:49:11.905Z,8.80
2019-04-10T18:51:43.998Z,8.70
2019-04-10T18:54:18.588Z,8.80
2019-04-10T18:56:51.613Z,9.00
2019-04-10T18:59:24.724Z,8.90
2019-04-10T19:02:03.320Z,8.90
2019-04-10T19:04:52.540Z,8.90
2019-04-10T19:07:22.909Z,8.90
2019-04-10T19:09:53.241Z,8.90
2019-04-10T19:12:24.405Z,8.80
2019-04-10T19:14:54.866Z,8.70
2019-04-10T19:17:25.186Z,8.80
2019-04-10T19:19:56.751Z,8.70
2019-04-10T19:22:28.505Z,8.80
2019-04-10T19:24:59.178Z,8.80
2019-04-10T19:27:29.510Z,8.80
2019-04-10T19:30:00.291Z,8.90
2019-04-10T19:32:33.663Z,8.90
2019-04-10T19:35:04.930Z,9.00
2019-04-10T19:37:36.774Z,9.00
2019-04-10T19:40:11.200Z,9.00
2019-04-10T19:42:42.163Z,9.00
2019-04-10T19:45:13.830Z,9.00
2019-04-10T19:47:47.110Z,9.00
2019-04-10T19:50:17.997Z,9.00
2019-04-10T19:52:48.736Z,9.00
2019-04-10T19:55:19.815Z,9.00
2019-04-10T19:57:50.277Z,8.90
2019-04-10T20:00:24.168Z,9.00
2019-04-10T20:02:55.251Z,9.00
2019-04-10T20:05:25.480Z,9.00
2019-04-10T20:07:55.484Z,9.00
2019-04-10T20:10:27.599Z,9.00
2019-04-10T20:12:57.750Z,8.90
2019-04-10T20:15:28.695Z,8.90
2019-04-10T20:18:00.045Z,8.80
2019-04-10T20:20:31.124Z,8.80
2019-04-10T20:23:02.542Z,8.80
2019-04-10T20:25:34.484Z,8.80
2019-04-10T20:28:04.854Z,8.90
2019-04-10T20:30:34.988Z,8.80
2019-04-10T20:33:06.230Z,8.80
2019-04-10T20:35:37.283Z,8.80
2019-04-10T20:38:07.517Z,8.70
2019-04-10T20:40:38.076Z,8.80
2019-04-10T20:43:10.957Z,8.70
2019-04-10T20:45:41.991Z,8.80
2019-04-10T20:48:12.438Z,8.60
2019-04-10T20:50:42.393Z,8.70
2019-04-10T20:53:12.646Z,8.70
2019-04-10T20:55:42.617Z,8.70
2019-04-10T20:58:13.338Z,8.80
2019-04-10T21:00:44.904Z,8.80
2019-04-10T21:03:15.522Z,8.80
2019-04-10T21:05:46.494Z,8.70
2019-04-10T21:08:17.921Z,8.70
2019-04-10T21:10:49.260Z,8.70
2019-04-10T21:13:19.796Z,8.70
2019-04-10T21:15:51.460Z,8.80
2019-04-10T21:18:22.172Z,8.80
2019-04-10T21:20:53.637Z,8.70
